Port Orchard, WA (98366)

1:06 AM PDT on April 27, 2017 (GMT -0700)
Beach Drive E | | Change Station

Elev 59 ft 47.56 °N, 122.60 °W | Updated 25 seconds ago

Rain
Rain
44.4 °F
Feels Like 44 °F
N
0.0
Wind Variable Wind from SW

Today
High -- | Low -- °F
--% Chance of Precip.
Yesterday
High -- | Low -- °F
Precip. -- in
Pressure 30.01 in
Visibility 10.0 miles
Clouds Few 2700 ft
Mostly Cloudy 5500 ft
Overcast 7000 ft
Windchill 44 °F
Dew Point 41 °F
Humidity 90%
Rainfall 0.00 in
Snow Depth Not available.
5:59 AM 8:17 PM
New Moon, 1% visible
METAR KBFI 270753Z 19007KT 10SM FEW027 BKN055 OVC070 08/05 A3001 RMK AO2 SLP161 T00780050 401500078
Pressure 30.01 in
Visibility 10.0 miles
Clouds Few 2700 ft
Mostly Cloudy 5500 ft
Overcast 7000 ft
Windchill 44 °F
Dew Point 41 °F
Humidity 90%
Rainfall 0.00 in
Snow Depth Not available.
5:59 AM 8:17 PM
New Moon, 1% visible
METAR KBFI 270753Z 19007KT 10SM FEW027 BKN055 OVC070 08/05 A3001 RMK AO2 SLP161 T00780050 401500078

Get Severe Weather Alerts

Thanks for signing up!

Be on the lookout for a verification email in your inbox.

You'll start receiving the daily forecast at 8 AM.

×

10-Day Weather Forecast

Almanac

Astronomy

Apr. 27, 2017 Rise Set
Actual Time
Civil Twilight
Nautical Twilight
Astronomical Twilight
Moon
Length of Visible Light
Length of Day
Tomorrow will be .
, % of the Moon is Illuminated

Today's Extremes

State Highs State Lows

Community

WunderPhotos

WunderBlog® & News

Nearby

Air Quality

  Air Quality AQ Index Pollutant
Not available.

Snow Depth

Station Depth Elevation

Earthquake Activity

City Distance Mag. Time & Date
Minimum magnitude displayed is 2.5.

Coastal Water Temperatures

Place Temperature

Stations

Nearby Weather Stations

Station Location Temp. Windchill Dew Point Humidity Wind Precip. Elev Updated Type
                   

Watches & Warnings

There are currently no watches in effect.